Time;durP1;ratioP1;P1;durP2;ratioP2;P2;SDS_P1;SDS_P2;PMS_P1;PMS_P2;Temp;Humidity;BMP_temperature;BMP_pressure;BME280_temperature;BME280_humidity;BME280_pressure;Samples;Min_cycle;Max_cycle;Signal;HPM_P1;HPM_P2
2023/04/21 00:01:20;;;;;;;24.50;20.80;;;5.30;99.90;;;6.15;100.00;97614.38;5111862;28;20208;-64
2023/04/21 00:03:54;;;;;;;33.20;22.77;;;5.50;99.90;;;6.22;100.00;97610.63;5117041;28;20220;-65
2023/04/21 00:06:30;;;;;;;79.93;25.23;;;5.50;99.90;;;6.24;100.00;97615.03;5115425;28;20282;-65
2023/04/21 00:09:04;;;;;;;26.97;22.07;;;5.50;99.90;;;6.35;100.00;97618.31;5109916;28;20224;-64
2023/04/21 00:11:37;;;;;;;58.10;23.17;;;5.60;99.90;;;6.24;100.00;97620.13;5111772;28;20250;-65
2023/04/21 00:14:11;;;;;;;67.77;25.00;;;5.50;99.90;;;6.19;100.00;97615.50;5115733;28;20202;-65
2023/04/21 00:16:45;;;;;;;57.80;24.20;;;5.50;99.90;;;6.15;100.00;97609.31;5112610;28;20290;-64
2023/04/21 00:19:18;;;;;;;64.93;23.43;;;5.50;99.90;;;6.16;100.00;97603.47;5108223;28;20275;-65
2023/04/21 00:21:57;;;;;;;52.43;24.00;;;5.50;99.90;;;6.11;100.00;97603.94;5114788;28;20243;-65
2023/04/21 00:24:30;;;;;;;32.43;22.27;;;5.40;99.90;;;6.09;100.00;97601.25;5112586;28;20283;-64
2023/04/21 00:27:03;;;;;;;64.43;25.53;;;5.40;99.90;;;6.00;100.00;97591.34;5111547;28;20201;-64
2023/04/21 00:29:39;;;;;;;62.27;26.00;;;5.40;99.90;;;6.13;100.00;97589.69;5115883;28;20699;-65
2023/04/21 00:32:12;;;;;;;76.83;25.47;;;5.40;99.90;;;6.02;100.00;97588.94;5114966;28;20695;-65
2023/04/21 00:34:45;;;;;;;79.97;25.30;;;5.40;99.90;;;5.97;100.00;97582.66;5108976;28;20629;-64
2023/04/21 00:37:18;;;;;;;37.63;23.10;;;5.40;99.90;;;5.98;100.00;97577.72;5113799;28;20216;-64
2023/04/21 00:39:51;;;;;;;35.33;24.07;;;5.40;99.90;;;6.02;100.00;97573.72;5113396;28;20228;-65
2023/04/21 00:42:24;;;;;;;35.80;22.60;;;5.40;99.90;;;6.00;100.00;97567.66;5116674;28;20208;-64
2023/04/21 00:44:58;;;;;;;38.63;23.60;;;5.40;99.90;;;6.00;100.00;97570.19;5114899;28;20209;-64
2023/04/21 00:47:32;;;;;;;77.53;25.50;;;5.30;99.90;;;5.87;100.00;97560.81;5114853;28;20227;-64
2023/04/21 00:50:06;;;;;;;31.93;23.43;;;5.30;99.90;;;5.84;100.00;97561.50;5113946;28;20197;-65
2023/04/21 00:52:40;;;;;;;34.10;22.83;;;5.30;99.90;;;5.94;100.00;97563.03;5116609;28;20743;-64
2023/04/21 00:55:14;;;;;;;28.20;21.17;;;5.30;99.90;;;6.00;100.00;97557.50;5114270;28;20196;-64
2023/04/21 00:57:48;;;;;;;28.37;21.00;;;5.40;99.90;;;6.04;100.00;97557.84;5107196;28;20227;-64
2023/04/21 01:00:22;;;;;;;21.50;18.20;;;5.40;99.90;;;6.00;100.00;97553.31;5119761;28;20213;-64
2023/04/21 01:02:56;;;;;;;19.60;17.50;;;5.40;99.90;;;6.03;100.00;97545.91;5107250;28;20214;-64
2023/04/21 01:05:29;;;;;;;20.80;17.07;;;5.30;99.90;;;5.93;100.00;97551.13;5114471;28;20618;-65
2023/04/21 01:08:02;;;;;;;18.33;16.33;;;5.20;99.90;;;5.94;100.00;97549.47;5109815;28;20649;-64
2023/04/21 01:10:35;;;;;;;21.27;17.80;;;5.20;99.90;;;5.98;100.00;97553.97;5115255;28;20212;-65
2023/04/21 01:13:08;;;;;;;20.27;17.57;;;5.20;99.90;;;5.98;100.00;97553.97;5115380;28;20212;-64
2023/04/21 01:15:43;;;;;;;18.37;16.47;;;5.20;99.90;;;6.00;100.00;97547.34;5113768;28;20207;-64
2023/04/21 01:18:17;;;;;;;20.20;16.40;;;5.30;99.90;;;6.04;100.00;97554.44;5113483;28;20224;-65
2023/04/21 01:20:50;;;;;;;20.03;16.20;;;5.30;99.90;;;6.07;100.00;97554.63;5117995;28;20670;-65
2023/04/21 01:23:24;;;;;;;21.53;17.63;;;5.30;99.90;;;6.07;100.00;97549.56;5119080;28;20592;-64
2023/04/21 01:25:57;;;;;;;22.07;17.47;;;5.30;99.90;;;6.04;100.00;97550.22;5120140;28;20205;-64
2023/04/21 01:28:30;;;;;;;21.10;17.80;;;5.30;99.90;;;6.05;100.00;97543.50;5115286;28;20232;-65
2023/04/21 01:31:04;;;;;;;23.50;19.10;;;5.30;99.90;;;6.04;100.00;97534.13;5117781;28;20400;-65
2023/04/21 01:33:37;;;;;;;27.90;20.60;;;5.30;99.90;;;5.96;100.00;97532.72;5117632;28;20201;-65
2023/04/21 01:36:10;;;;;;;27.97;21.40;;;5.20;99.90;;;5.91;100.00;97531.47;5119356;29;20589;-65
2023/04/21 01:38:46;;;;;;;27.70;21.07;;;5.20;99.90;;;5.92;100.00;97533.22;5116205;28;20696;-65
2023/04/21 01:41:19;;;;;;;24.53;19.23;;;5.20;99.90;;;5.93;100.00;97545.16;5115425;28;20196;-64
2023/04/21 01:43:52;;;;;;;24.80;18.03;;;5.20;99.90;;;5.97;100.00;97537.00;5114960;28;20485;-65
2023/04/21 01:46:25;;;;;;;26.07;20.03;;;5.30;99.90;;;6.03;100.00;97545.91;5116467;28;20216;-65
2023/04/21 01:48:59;;;;;;;25.63;20.03;;;5.20;99.90;;;5.94;100.00;97539.31;5117070;28;20221;-64
2023/04/21 01:51:32;;;;;;;27.03;20.10;;;5.20;99.90;;;5.90;100.00;97537.34;5116251;28;20577;-64
2023/04/21 01:54:06;;;;;;;23.27;18.67;;;5.10;99.90;;;5.81;100.00;97533.38;5113971;28;20204;-64
2023/04/21 01:56:39;;;;;;;26.60;20.07;;;5.10;99.90;;;5.71;100.00;97538.56;5114963;28;20251;-64
2023/04/21 01:59:12;;;;;;;22.30;18.67;;;5.10;99.90;;;5.71;100.00;97536.03;5113226;28;20727;-64
2023/04/21 02:01:46;;;;;;;23.43;18.67;;;5.10;99.90;;;5.78;100.00;97530.63;5118382;28;20232;-64
2023/04/21 02:04:19;;;;;;;23.43;18.63;;;5.10;99.90;;;5.83;100.00;97519.13;5114891;28;20216;-64
2023/04/21 02:06:52;;;;;;;22.97;18.73;;;5.20;99.90;;;5.86;100.00;97519.34;5117982;28;20579;-64
2023/04/21 02:09:26;;;;;;;24.03;18.50;;;5.10;99.90;;;5.79;100.00;97516.28;5116555;28;20355;-65
2023/04/21 02:12:00;;;;;;;25.77;19.90;;;5.10;99.90;;;5.76;100.00;97519.50;5118054;28;20218;-64
2023/04/21 02:14:33;;;;;;;22.23;19.00;;;5.10;99.90;;;5.83;100.00;97528.41;5116396;28;20656;-65
2023/04/21 02:17:06;;;;;;;21.70;18.23;;;5.20;99.90;;;5.90;100.00;97519.59;5116605;28;20208;-64
2023/04/21 02:19:40;;;;;;;28.50;22.17;;;5.20;99.90;;;5.96;100.00;97525.09;5116204;28;20232;-64
2023/04/21 02:22:13;;;;;;;26.17;22.20;;;5.20;99.90;;;5.93;100.00;97520.69;5119027;28;20205;-64
2023/04/21 02:24:47;;;;;;;32.30;24.23;;;5.20;99.90;;;5.93;100.00;97537.53;5118402;28;20577;-64
2023/04/21 02:27:20;;;;;;;27.00;22.67;;;5.20;99.90;;;5.90;100.00;97529.72;5115641;28;20211;-64
2023/04/21 02:29:53;;;;;;;28.67;23.43;;;5.20;99.90;;;5.91;100.00;97526.41;5113862;28;20201;-65
2023/04/21 02:32:26;;;;;;;26.50;21.93;;;5.20;99.90;;;6.02;100.00;97520.44;5117015;28;20606;-64
2023/04/21 02:34:59;;;;;;;27.03;22.27;;;5.20;99.90;;;5.92;100.00;97525.63;5113526;28;20584;-64
2023/04/21 02:37:33;;;;;;;26.70;22.23;;;5.20;99.90;;;5.80;100.00;97518.03;5114482;28;20228;-65
2023/04/21 02:40:09;;;;;;;26.50;21.13;;;5.10;99.90;;;5.75;100.00;97527.88;5115494;28;20255;-65
2023/04/21 02:42:42;;;;;;;25.97;21.60;;;5.10;99.90;;;5.69;100.00;97526.56;5110594;28;20204;-64
2023/04/21 02:45:15;;;;;;;25.70;21.13;;;5.00;99.90;;;5.60;100.00;97520.06;5114679;28;20219;-64
2023/04/21 02:47:48;;;;;;;25.67;21.50;;;5.00;99.90;;;5.60;100.00;97514.13;5112184;28;20239;-64
2023/04/21 02:50:22;;;;;;;26.73;21.30;;;5.00;99.90;;;5.71;100.00;97523.34;5114136;28;20421;-65
2023/04/21 02:52:55;;;;;;;27.97;21.87;;;5.10;99.90;;;5.79;100.00;97522.25;5117471;28;20636;-64
2023/04/21 02:55:29;;;;;;;28.20;22.07;;;5.20;99.90;;;5.87;100.00;97530.38;5116616;28;20205;-65
2023/04/21 02:58:02;;;;;;;26.63;21.73;;;5.20;99.90;;;5.88;100.00;97533.00;5116550;28;20621;-67
2023/04/21 03:00:35;;;;;;;25.07;20.90;;;5.20;99.90;;;5.91;100.00;97531.47;5114615;28;20232;-63
2023/04/21 03:03:08;;;;;;;25.10;20.40;;;5.20;99.90;;;5.91;100.00;97528.94;5117148;28;20725;-66
2023/04/21 03:05:42;;;;;;;26.63;21.80;;;5.20;99.90;;;5.94;100.00;97531.72;5113943;28;20247;-64
2023/04/21 03:08:15;;;;;;;26.47;22.37;;;5.20;99.90;;;5.98;100.00;97533.69;5115920;28;20237;-65
2023/04/21 03:10:49;;;;;;;25.73;21.63;;;5.20;99.90;;;5.97;100.00;97532.81;5119518;28;20209;-65
2023/04/21 03:13:23;;;;;;;26.77;21.40;;;5.20;99.90;;;5.96;100.00;97523.44;5115086;28;20208;-64
2023/04/21 03:15:56;;;;;;;27.37;21.53;;;5.20;99.90;;;5.92;100.00;97525.63;5118910;28;20204;-64
2023/04/21 03:18:29;;;;;;;24.73;21.10;;;5.20;99.90;;;5.91;100.00;97522.22;5117974;28;20228;-63
2023/04/21 03:21:02;;;;;;;22.37;17.63;;;5.20;99.90;;;5.85;100.00;97529.41;5116516;28;20233;-69
2023/04/21 03:23:35;;;;;;;20.20;17.20;;;5.10;99.90;;;5.79;100.00;97527.31;5109230;28;20210;-63
2023/04/21 03:26:10;;;;;;;19.70;17.57;;;5.00;99.90;;;5.77;100.00;97523.78;5111833;28;20239;-64
2023/04/21 03:28:43;;;;;;;17.33;15.40;;;5.00;99.90;;;5.75;100.00;97514.28;5116300;28;20659;-64
2023/04/21 03:31:16;;;;;;;21.23;17.37;;;4.90;99.90;;;5.69;100.00;97519.81;5115060;28;20640;-66
2023/04/21 03:33:49;;;;;;;22.23;17.83;;;4.90;99.90;;;5.66;100.00;97514.53;5108007;29;20231;-63
2023/04/21 03:36:22;;;;;;;34.67;23.50;;;5.00;99.90;;;5.65;100.00;97515.31;5108317;28;20208;-65
2023/04/21 03:38:57;;;;;;;41.00;27.23;;;4.90;99.90;;;5.65;100.00;97508.59;5115862;28;20224;-63
2023/04/21 03:41:42;;;;;;;67.90;38.40;;;4.90;99.90;;;5.64;100.00;97503.44;5114728;28;20201;-66
2023/04/21 03:44:15;;;;;;;43.97;28.63;;;4.90;99.90;;;5.67;100.00;97501.09;5109881;28;20204;-65
2023/04/21 03:46:48;;;;;;;34.73;25.23;;;5.00;99.90;;;5.72;100.00;97504.81;5111878;28;20653;-66
2023/04/21 03:49:21;;;;;;;29.60;22.93;;;5.00;99.90;;;5.69;100.00;97514.75;5113762;28;20224;-66
2023/04/21 03:51:55;;;;;;;22.57;19.10;;;4.90;99.90;;;5.61;100.00;97513.34;5121205;28;20291;-64
2023/04/21 03:54:28;;;;;;;28.60;19.93;;;4.90;99.90;;;5.65;100.00;97517.84;5115751;28;20216;-70
2023/04/21 03:57:02;;;;;;;28.20;20.27;;;4.90;99.90;;;5.69;100.00;97521.47;5113830;28;20226;-64
2023/04/21 03:59:35;;;;;;;25.43;20.00;;;4.90;99.90;;;5.74;100.00;97526.09;5114218;28;20235;-64
2023/04/21 04:02:08;;;;;;;28.93;21.20;;;5.00;99.90;;;5.77;100.00;97533.91;5110371;28;20208;-66
2023/04/21 04:04:41;;;;;;;50.03;22.80;;;5.00;99.90;;;5.72;100.00;97532.72;5115684;28;20209;-63
2023/04/21 04:07:16;;;;;;;23.50;17.93;;;5.00;99.90;;;5.70;100.00;97541.00;5113986;28;20216;-65
2023/04/21 04:09:49;;;;;;;34.73;21.10;;;4.90;99.90;;;5.63;100.00;97547.28;5112748;28;20208;-63
2023/04/21 04:12:24;;;;;;;31.97;19.70;;;4.90;99.90;;;5.63;100.00;97549.81;5114623;28;20649;-63
2023/04/21 04:14:57;;;;;;;51.10;20.33;;;4.90;99.90;;;5.62;100.00;97540.47;5114829;28;20204;-67
2023/04/21 04:17:30;;;;;;;89.77;22.80;;;4.90;99.90;;;5.54;100.00;97533.97;5110291;28;20245;-63
2023/04/21 04:20:05;;;;;;;62.03;22.37;;;4.80;99.90;;;5.43;100.00;97531.53;5110737;28;20318;-63
2023/04/21 04:22:38;;;;;;;25.37;19.83;;;4.70;99.90;;;5.36;100.00;97533.53;5111331;28;20215;-63
2023/04/21 04:25:13;;;;;;;37.60;19.47;;;4.70;99.90;;;5.43;100.00;97546.75;5114171;28;20300;-69
2023/04/21 04:27:49;;;;;;;20.90;18.63;;;4.70;99.90;;;5.35;100.00;97552.03;5113237;28;20594;-63
2023/04/21 04:30:22;;;;;;;26.37;19.73;;;4.70;99.90;;;5.32;100.00;97560.31;5113737;28;20207;-67
2023/04/21 04:32:56;;;;;;;45.10;20.57;;;4.60;99.90;;;5.37;100.00;97558.97;5110575;28;20213;-63
2023/04/21 04:35:29;;;;;;;50.43;21.43;;;4.70;99.90;;;5.39;100.00;97570.09;5112802;29;20644;-63
2023/04/21 04:38:03;;;;;;;32.20;21.40;;;4.70;99.90;;;5.37;100.00;97571.66;5109164;28;20550;-64
2023/04/21 04:40:36;;;;;;;33.43;22.13;;;4.80;99.90;;;5.39;100.00;97577.72;5111912;28;20251;-64
2023/04/21 04:43:10;;;;;;;47.13;22.60;;;4.80;99.90;;;5.65;100.00;97583.78;5109820;28;20211;-66
2023/04/21 04:45:44;;;;;;;29.67;21.33;;;4.90;99.90;;;5.63;100.00;97586.19;5110684;29;20220;-64
2023/04/21 04:48:17;;;;;;;34.77;22.03;;;4.90;99.90;;;5.37;100.00;97569.09;5109033;28;20805;-64
2023/04/21 04:50:50;;;;;;;64.53;21.07;;;4.70;99.90;;;5.19;100.00;97566.13;5114813;28;20208;-63
2023/04/21 04:53:23;;;;;;;31.67;20.93;;;4.60;99.90;;;5.30;100.00;97574.53;5116232;28;20246;-67
2023/04/21 04:55:57;;;;;;;42.33;19.70;;;4.60;99.90;;;5.37;100.00;97576.72;5114732;28;20214;-64
2023/04/21 04:58:31;;;;;;;26.57;20.07;;;4.70;99.90;;;5.60;100.00;97583.44;5110591;28;20223;-66
2023/04/21 05:01:12;;;;;;;27.60;21.07;;;4.80;99.90;;;5.54;100.00;97577.06;5114983;28;20231;-64
2023/04/21 05:03:46;;;;;;;25.50;20.43;;;4.80;99.90;;;5.57;100.00;97564.59;5108849;28;20193;-66
2023/04/21 05:06:19;;;;;;;23.93;19.90;;;4.80;99.90;;;5.64;100.00;97556.66;5119314;28;20331;-65
2023/04/21 05:08:52;;;;;;;21.43;18.27;;;4.80;99.90;;;5.49;100.00;97565.69;5109993;28;20232;-64
2023/04/21 05:11:25;;;;;;;28.60;19.30;;;4.80;99.90;;;5.40;100.00;97569.31;5110018;28;20691;-63
2023/04/21 05:14:00;;;;;;;74.47;22.60;;;4.70;99.90;;;5.36;100.00;97564.81;5124016;28;20668;-63
2023/04/21 05:16:33;;;;;;;38.50;21.53;;;4.70;99.90;;;5.47;100.00;97559.66;5112900;28;20675;-64
2023/04/21 05:19:06;;;;;;;27.33;21.67;;;4.70;99.90;;;5.50;100.00;97567.47;5113124;28;20229;-68
2023/04/21 05:21:39;;;;;;;29.07;21.23;;;4.80;99.90;;;5.60;100.00;97574.94;5114379;28;20228;-64
2023/04/21 05:24:12;;;;;;;25.40;21.20;;;4.90;99.90;;;5.68;100.00;97558.63;5113957;28;20294;-64
2023/04/21 05:26:45;;;;;;;69.77;22.87;;;4.90;99.90;;;5.62;100.00;97559.09;5117528;28;20661;-66
2023/04/21 05:29:20;;;;;;;23.07;19.67;;;4.90;99.90;;;5.65;100.00;97571.09;5110823;28;20225;-64
2023/04/21 05:31:53;;;;;;;27.80;20.67;;;4.90;99.90;;;5.75;100.00;97573.53;5114212;28;20211;-64
2023/04/21 05:34:26;;;;;;;25.53;20.57;;;5.00;99.90;;;5.80;100.00;97574.72;5113132;28;20292;-64
2023/04/21 05:36:59;;;;;;;30.40;21.73;;;5.10;99.90;;;5.65;100.00;97578.69;5117296;28;20282;-64
2023/04/21 05:39:32;;;;;;;24.27;21.43;;;4.90;99.90;;;5.77;100.00;97566.88;5119357;28;20681;-67
2023/04/21 05:42:05;;;;;;;29.83;23.50;;;5.00;99.90;;;5.80;100.00;97579.78;5110192;28;20229;-66
2023/04/21 05:44:40;;;;;;;31.63;23.63;;;5.00;99.90;;;5.69;100.00;97575.59;5108277;28;20510;-64
2023/04/21 05:47:13;;;;;;;27.57;23.00;;;5.00;99.90;;;5.62;100.00;97573.41;5125176;28;20215;-65
2023/04/21 05:49:48;;;;;;;29.73;22.93;;;4.90;99.90;;;5.60;100.00;97588.50;5112642;28;20727;-63
2023/04/21 05:52:22;;;;;;;31.27;22.97;;;4.90;99.90;;;5.70;100.00;97595.13;5117983;28;20422;-63
2023/04/21 05:54:55;;;;;;;33.17;23.97;;;5.00;99.90;;;5.79;100.00;97593.25;5115827;28;20216;-65
2023/04/21 05:57:28;;;;;;;31.77;24.03;;;5.10;99.90;;;5.83;100.00;97580.00;5116695;28;20274;-64
2023/04/21 06:00:03;;;;;;;31.47;24.10;;;5.10;99.90;;;5.85;100.00;97582.66;5114164;28;20276;-67
2023/04/21 06:02:36;;;;;;;29.47;24.43;;;5.10;99.90;;;5.67;100.00;97582.25;5110928;28;20690;-63
2023/04/21 06:05:09;;;;;;;36.23;25.67;;;5.10;99.90;;;5.64;100.00;97584.56;5117229;28;20213;-69
2023/04/21 06:07:43;;;;;;;40.73;26.83;;;5.10;99.90;;;5.84;100.00;97583.44;5113825;28;20608;-65
2023/04/21 06:10:18;;;;;;;33.43;26.30;;;5.20;99.90;;;5.57;100.00;97584.88;5112822;28;20224;-65
2023/04/21 06:12:51;;;;;;;34.03;25.80;;;5.10;99.90;;;5.60;100.00;97575.81;5111679;28;20659;-66
2023/04/21 06:15:25;;;;;;;35.40;27.10;;;5.10;99.90;;;5.60;100.00;97567.34;5114001;28;20213;-64
2023/04/21 06:17:58;;;;;;;34.87;25.93;;;5.00;99.90;;;5.78;100.00;97561.06;5110471;28;20227;-64
2023/04/21 06:20:31;;;;;;;38.63;28.87;;;5.20;99.90;;;5.80;100.00;97562.03;5111335;28;20286;-65
2023/04/21 06:23:04;;;;;;;37.00;28.23;;;5.20;99.90;;;5.69;100.00;97559.50;5115553;28;20197;-68
2023/04/21 06:25:37;;;;;;;35.47;27.07;;;5.20;99.90;;;5.75;100.00;97553.25;5108732;28;20204;-64
2023/04/21 06:28:11;;;;;;;37.53;27.27;;;5.20;99.90;;;5.73;100.00;97547.16;5115200;28;20220;-64
2023/04/21 06:30:45;;;;;;;36.37;26.67;;;5.30;99.90;;;5.75;100.00;97540.56;5114899;28;20205;-64
2023/04/21 06:33:18;;;;;;;34.83;26.80;;;5.30;99.90;;;5.63;100.00;97534.59;5111185;28;20836;-64
2023/04/21 06:35:51;;;;;;;34.20;25.47;;;5.30;99.90;;;5.97;100.00;97532.81;5115115;28;20851;-65
2023/04/21 06:38:24;;;;;;;33.43;25.93;;;5.40;99.90;;;5.91;100.00;97519.66;5114330;28;20703;-63
2023/04/21 06:40:57;;;;;;;33.60;25.73;;;5.40;99.90;;;6.15;100.00;97523.03;5112968;28;20626;-65
2023/04/21 06:43:30;;;;;;;33.27;26.40;;;5.50;99.90;;;6.12;100.00;97517.75;5115865;28;20206;-64
2023/04/21 06:46:05;;;;;;;32.43;25.57;;;5.50;99.90;;;6.23;100.00;97524.44;5116639;28;20205;-66
2023/04/21 06:48:38;;;;;;;35.00;25.97;;;5.60;99.90;;;6.32;100.00;97527.63;5116333;28;20601;-65
2023/04/21 06:51:11;;;;;;;29.97;24.20;;;5.70;99.90;;;6.53;100.00;97530.72;5115302;28;20200;-67
2023/04/21 06:53:44;;;;;;;31.50;24.90;;;5.80;99.90;;;6.55;100.00;97525.72;5117586;28;20286;-65
2023/04/21 06:56:17;;;;;;;26.13;22.93;;;5.80;99.90;;;6.58;100.00;97530.13;5113113;28;20201;-64
2023/04/21 06:58:50;;;;;;;29.97;25.37;;;5.80;99.90;;;6.66;100.00;97529.00;5115924;28;20648;-67
2023/04/21 07:01:25;;;;;;;31.27;25.37;;;5.90;99.90;;;6.67;100.00;97530.78;5121174;28;20221;-64
2023/04/21 07:03:58;;;;;;;29.40;25.17;;;5.90;99.90;;;6.72;100.00;97540.47;5107729;28;20751;-63
2023/04/21 07:06:31;;;;;;;36.43;31.77;;;6.00;99.90;;;6.81;100.00;97545.28;5111890;28;20296;-64
2023/04/21 07:09:05;;;;;;;33.10;28.37;;;6.10;99.90;;;6.92;100.00;97549.38;5114252;28;20598;-67
2023/04/21 07:11:38;;;;;;;30.47;26.13;;;6.20;99.90;;;7.09;100.00;97542.84;5111182;28;20300;-64
2023/04/21 07:14:11;;;;;;;27.70;24.40;;;6.30;99.90;;;7.22;100.00;97540.34;5111651;28;20656;-64
2023/04/21 07:16:46;;;;;;;26.30;23.20;;;6.40;99.90;;;7.28;100.00;97541.53;5113966;28;20216;-66
2023/04/21 07:19:19;;;;;;;28.40;24.27;;;6.40;99.90;;;7.27;100.00;97539.75;5112465;28;20611;-64
2023/04/21 07:21:52;;;;;;;26.47;22.43;;;6.40;99.90;;;7.39;100.00;97543.09;5116097;28;20232;-64
2023/04/21 07:24:25;;;;;;;24.23;21.60;;;6.50;99.90;;;7.49;100.00;97542.88;5111448;28;20672;-67
2023/04/21 07:26:58;;;;;;;24.00;20.97;;;6.60;99.90;;;7.64;100.00;97531.16;5113637;28;20664;-67
2023/04/21 07:29:31;;;;;;;24.57;21.93;;;6.70;99.90;;;7.73;100.00;97529.97;5111807;28;20225;-68
2023/04/21 07:32:06;;;;;;;22.50;20.20;;;6.80;99.90;;;7.84;100.00;97526.41;5112699;28;20589;-64
2023/04/21 07:34:39;;;;;;;22.13;19.87;;;6.90;99.90;;;7.86;100.00;97524.84;5112908;28;20216;-64
2023/04/21 07:37:12;;;;;;;21.10;19.00;;;6.90;99.90;;;8.20;100.00;97526.91;5115504;28;20272;-65
2023/04/21 07:39:45;;;;;;;22.73;20.33;;;7.20;99.90;;;7.93;100.00;97521.91;5114158;28;20618;-65
2023/04/21 07:42:18;;;;;;;22.53;20.27;;;7.00;99.90;;;7.82;100.00;97513.59;5110895;29;20684;-66
2023/04/21 07:44:51;;;;;;;22.53;20.10;;;7.00;99.90;;;8.10;100.00;97516.19;5111260;28;20660;-64
2023/04/21 07:47:26;;;;;;;22.73;20.33;;;7.20;99.90;;;8.40;100.00;97506.09;5110164;28;20327;-67
2023/04/21 07:50:00;;;;;;;23.17;20.87;;;7.40;99.90;;;8.04;100.00;97508.19;5116083;28;20200;-65
2023/04/21 07:52:33;;;;;;;21.80;19.70;;;7.20;99.90;;;8.13;100.00;97518.03;5113034;28;20212;-66
2023/04/21 07:55:07;;;;;;;23.30;20.97;;;7.30;99.90;;;8.48;100.00;97506.56;5111501;28;20204;-64
2023/04/21 07:57:40;;;;;;;25.63;22.97;;;7.40;99.90;;;8.75;100.00;97526.00;5107217;28;20315;-65
2023/04/21 08:00:14;;;;;;;25.20;22.50;;;7.70;99.90;;;8.70;100.00;97521.44;5107165;28;20212;-65
2023/04/21 08:02:49;;;;;;;25.47;22.77;;;7.70;99.90;;;8.87;100.00;97517.31;5109730;28;20297;-68
2023/04/21 08:05:22;;;;;;;25.20;22.70;;;7.90;99.90;;;8.78;100.00;97507.47;5111764;28;20304;-64
2023/04/21 08:07:56;;;;;;;24.37;21.90;;;7.80;99.90;;;8.75;100.00;97518.34;5112804;28;20679;-64
2023/04/21 08:10:29;;;;;;;23.47;21.07;;;7.90;99.90;;;8.70;100.00;97521.44;5114100;28;20232;-63
2023/04/21 08:13:05;;;;;;;22.03;19.73;;;7.80;99.90;;;8.63;100.00;97516.78;5116118;28;20215;-65
2023/04/21 08:15:38;;;;;;;22.03;19.80;;;7.70;99.90;;;8.56;100.00;97510.44;5118686;28;20299;-68
2023/04/21 08:18:15;;;;;;;22.50;20.20;;;7.80;99.90;;;8.49;100.00;97519.38;5114005;28;20586;-63
2023/04/21 08:20:52;;;;;;;21.70;19.40;;;7.70;99.90;;;8.72;100.00;97512.22;5114771;28;20696;-64
2023/04/21 08:23:25;;;;;;;23.60;21.20;;;7.90;99.90;;;9.36;100.00;97515.91;5110663;28;20312;-65
2023/04/21 08:25:58;;;;;;;22.95;20.55;;;8.50;99.90;;;9.92;100.00;97500.25;5112680;28;20204;-69
2023/04/21 08:28:31;;;;;;;23.02;20.63;;;9.10;99.90;;;10.44;100.00;97493.59;5110213;28;20598;-65
2023/04/21 08:31:04;;;;;;;21.52;19.35;;;9.70;99.90;;;10.91;100.00;97500.25;5107844;28;20205;-65
2023/04/21 08:33:39;;;;;;;21.58;19.45;;;10.20;99.90;;;11.20;100.00;97500.00;5107959;28;20593;-64
2023/04/21 08:36:30;;;;;;;18.88;17.08;;;10.40;99.90;;;11.41;100.00;97495.03;5111504;28;20513;-63
2023/04/21 08:39:04;;;;;;;19.05;17.17;;;10.50;99.90;;;11.82;100.00;97492.69;5108476;28;20315;-65
2023/04/21 08:41:40;;;;;;;17.02;15.50;;;10.90;99.90;;;11.94;100.00;97503.53;5112519;28;20578;-64
2023/04/21 08:44:14;;;;;;;18.35;16.55;;;11.10;99.90;;;12.21;100.00;97505.56;5107582;28;20750;-65
2023/04/21 08:46:50;;;;;;;20.77;17.30;;;11.40;99.90;;;12.46;100.00;97502.41;5108870;28;20652;-70
2023/04/21 08:49:26;;;;;;;17.42;15.82;;;11.50;99.90;;;12.33;93.55;97506.09;5108807;28;20243;-67
2023/04/21 08:52:00;;;;;;;17.85;16.25;;;11.50;99.90;;;12.36;94.18;97503.66;5116553;28;20223;-63
2023/04/21 08:54:35;;;;;;;17.27;15.68;;;11.40;99.90;;;12.38;92.62;97494.38;5111874;28;20204;-65
2023/04/21 08:57:08;;;;;;;16.65;15.15;;;11.50;99.90;;;12.25;88.65;97492.09;5112308;28;20651;-63
2023/04/21 08:59:48;;;;;;;16.92;15.43;;;11.50;99.90;;;12.50;96.10;97496.59;5116366;28;20212;-64
2023/04/21 09:02:22;;;;;;;14.25;12.95;;;11.60;99.90;;;12.42;88.97;97493.72;5109327;28;20228;-66
2023/04/21 09:04:58;;;;;;;15.23;13.82;;;11.60;99.90;;;12.74;98.69;97496.78;5111055;28;20647;-64
2023/04/21 09:07:34;;;;;;;14.60;13.20;;;11.90;99.90;;;12.87;93.13;97500.75;5109299;28;20232;-65
2023/04/21 09:10:08;;;;;;;15.40;14.00;;;12.20;99.90;;;13.01;96.31;97495.38;5111554;28;21498;-65
2023/04/21 09:12:42;;;;;;;14.13;12.93;;;12.40;99.90;;;13.03;92.60;97490.31;5115744;28;20199;-65
2023/04/21 09:15:15;;;;;;;10.68;9.73;;;12.50;99.90;;;12.88;85.43;97485.44;5114360;28;20196;-66
2023/04/21 09:17:54;;;;;;;12.73;11.52;;;12.20;99.90;;;12.81;87.64;97480.84;5111711;28;20235;-68
2023/04/21 09:20:30;;;;;;;12.57;11.48;;;12.20;99.90;;;13.18;91.41;97479.78;5108754;28;20232;-66
2023/04/21 09:23:05;;;;;;;11.15;10.15;;;12.50;99.90;;;13.20;90.04;97478.19;5111120;28;20313;-65
2023/04/21 09:25:40;;;;;;;11.63;10.63;;;12.60;99.90;;;13.09;87.87;97488.00;5107493;28;20220;-66
2023/04/21 09:28:15;;;;;;;12.13;10.93;;;12.50;99.90;;;13.39;87.97;97485.84;5109966;28;20680;-65
2023/04/21 09:30:55;;;;;;;12.00;10.75;;;12.80;99.90;;;13.46;82.37;97484.38;5110975;28;20208;-63
2023/04/21 09:33:33;;;;;;;12.95;11.65;;;12.90;99.90;;;13.57;86.50;97483.13;5115300;28;20254;-66
2023/04/21 09:36:24;;;;;;;12.63;11.43;;;12.90;99.90;;;13.73;85.94;97482.00;5113639;28;20715;-63
2023/04/21 09:39:00;;;;;;;12.25;11.05;;;13.20;99.90;;;13.78;85.73;97475.34;5113836;28;20229;-65
2023/04/21 09:41:36;;;;;;;12.00;10.90;;;13.20;99.90;;;13.90;85.91;97480.94;5127374;28;20219;-64
2023/04/21 09:44:09;;;;;;;12.27;11.27;;;13.20;99.90;;;13.70;85.37;97456.19;5111276;28;20304;-65
2023/04/21 09:46:44;;;;;;;10.85;9.95;;;12.90;99.90;;;13.84;87.79;97459.31;5116423;28;20205;-65
2023/04/21 09:49:18;;;;;;;11.85;10.75;;;13.10;99.90;;;13.49;84.19;97453.69;5118404;28;20219;-67
2023/04/21 09:51:52;;;;;;;12.55;11.35;;;12.90;99.90;;;13.87;82.84;97449.13;5110576;28;20692;-64
2023/04/21 09:54:31;;;;;;;12.13;11.02;;;13.20;99.90;;;14.09;86.95;97453.38;5114527;28;20212;-65
2023/04/21 09:57:06;;;;;;;12.57;11.35;;;13.50;99.90;;;14.27;90.16;97456.59;5114738;28;20211;-64
2023/04/21 09:59:46;;;;;;;11.57;10.60;;;13.60;99.90;;;14.53;86.98;97461.84;5115535;28;20209;-64
2023/04/21 10:02:20;;;;;;;12.50;11.40;;;13.80;99.90;;;14.26;77.93;97454.00;5116228;28;20285;-64
2023/04/21 10:04:54;;;;;;;12.38;11.27;;;13.80;99.90;;;14.67;84.73;97452.91;5115744;28;20976;-70
2023/04/21 10:07:29;;;;;;;12.13;10.93;;;14.00;99.90;;;14.90;81.10;97457.97;5110314;28;20886;-65
2023/04/21 10:10:02;;;;;;;11.93;10.82;;;14.20;99.90;;;15.14;80.31;97448.47;5112104;28;20597;-64
2023/04/21 10:12:35;;;;;;;11.73;10.65;;;14.50;99.90;;;15.16;77.37;97459.69;5115344;28;20288;-64
2023/04/21 10:15:30;;;;;;;12.15;11.05;;;14.50;99.90;;;14.64;76.30;97451.09;5124953;28;20213;-68
2023/04/21 10:18:28;;;;;;;12.05;10.95;;;14.00;99.90;;;14.75;76.30;97451.47;5116994;28;20232;-64
2023/04/21 10:21:05;;;;;;;12.85;11.65;;;14.00;99.90;;;14.89;76.96;97446.78;5119222;28;20204;-67
2023/04/21 10:23:42;;;;;;;11.55;10.57;;;14.20;99.90;;;14.59;76.88;97446.63;5111973;28;20223;-64
2023/04/21 10:26:19;;;;;;;12.05;11.00;;;14.00;99.90;;;14.62;74.53;97444.16;5115078;28;20685;-67
2023/04/21 10:28:55;;;;;;;12.18;10.98;;;14.10;99.90;;;14.51;79.05;97442.91;5114900;28;20231;-66
2023/04/21 10:31:33;;;;;;;11.02;10.13;;;13.90;99.90;;;14.76;79.08;97436.91;5115948;28;20201;-65
2023/04/21 10:34:19;;;;;;;11.40;10.40;;;14.20;99.90;;;14.71;77.55;97441.00;5116078;28;20205;-68
2023/04/21 10:37:21;;;;;;;12.45;11.35;;;14.20;99.90;;;14.59;75.98;97433.75;5122107;28;20205;-65
2023/04/21 10:39:56;;;;;;;11.82;10.82;;;14.30;99.90;;;14.82;76.18;97427.72;5113086;28;20199;-64